Terminal Aerodrome Forecast
Issued by NWS

Home | Current Version | Previous Version | Text Only | Print | Product List | Glossary On
Versions: 1 2 3 4 5 6 7 8 9 10 11 12 13 14 15 16 17
000
FTUS45 KPSR 281121
TAFIWA
TAF
KIWA 281121Z 2812/0112 10004KT P6SM VCSH FEW030 BKN060
     FM281300 10005KT P6SM -SHRA FEW030 BKN040
      TEMPO 2813/2815 5SM -RA SCT020 BKN030
     FM281600 24006KT P6SM VCSH FEW020 BKN060
     FM281800 26008KT P6SM BKN060
     FM010300 27005KT P6SM SCT060
      AMD LTD TO CLD VIS AND WIND TIL 281300=

USA.gov is the U.S. government's official web portal to all federal, state and local government web resources and services.